x

Central Aleutians 230nm Sw Dutch Harbor (46072) Wave Buoy

5:50 - Mon 31st Aug 2015 All times are UTC.

  • Sig Wave height 6.6ft
  • Peak Period 9s
  • Average Period 6s
  • Wind
    4mph, 7mph gusts
  • Sea Temp 48°f
  • Luft Temp 51°f
  • Sea Pressure 1015.5mb

More Historic Weather Station data

Upgrade to MSW Pro to gain access to the past 30 days of data for over 8000 Wavebouys and Weather Stations around the globe.

Join Pro

Comparision Forecast

View Surf forecast
   
Mo 08/31 5:50 6.5ft 9s 6s 4 7 mph 1015.5mb 48f 51f
4:50 6ft 10s 6s 4 7 mph 1015.3mb 49f 51f
3:50 6ft 7s 6s 4 7 mph 1014.9mb 49f 51f
2:50 6.5ft 10s 7s 7 9 mph 1014.8mb 49f 52f
1:50 6ft 10s 7s 9 11 mph 1015mb 49f 52f
12:50 6ft 8s 6s 4 7 mph 1014.6mb 50f 53f
So 08/30 11:50 6.5ft 10s 6s 7
mph
1014.5mb 49f 53f
10:50 6.5ft 7s 6s 9 11 mph 1014.5mb 49f 54f
9:50 6.5ft 8s 6s 11 13 mph 1014.3mb 50f 54f
8:50 6.5ft 7s 6s 13 16 mph 1013.9mb 50f 54f
7:50 7ft 8s 5s 16 18 mph 1013.2mb 51f 54f
6:50 7ft 6s 6s 18 20 mph 1012.7mb 51f 54f
5:50 7.5ft 7s 6s 16 18 mph 1012.4mb 51f 55f
4:50 6.5ft 6s 6s 16 18 mph 1012.4mb 52f 55f
3:50 7ft 6s 6s 18 22 mph 1012.2mb 53f 55f
2:50 7ft 7s 6s 16 18 mph 1012.8mb 53f 55f
1:50 7ft 7s 6s 16 18 mph 1013mb 53f 55f
12:50 7ft 6s 6s 18 20 mph 1013mb 54f 56f
11:50 7ft 6s 6s 18 22 mph 1013.4mb 54f 56f
10:50 6ft 6s 5s 20 22 mph 1013.4mb 54f 56f
9:50 7ft 6s 5s 20 22 mph 1013.8mb 54f 56f
8:50 6.5ft 6s 5s 22 27 mph 1014.2mb 53f 56f
7:50 7ft 6s 5s 22 25 mph 1014.4mb 53f 56f
6:50 6.5ft 6s 5s 20 25 mph 1015mb 53f 56f
5:50 7ft 6s 5s 20 22 mph 1015.2mb 52f 55f
4:50 7ft 6s 6s 16 18 mph 1015.6mb 52f 56f
3:50 7ft 6s 6s 18 22 mph 1015.9mb 52f 56f
2:50 6.5ft 6s 6s 20 25 mph 1016.3mb 52f 56f
1:50 7ft 6s 6s 22 27 mph 1016.6mb 53f 55f
12:50 7.5ft 6s 6s 22 29 mph 1017mb 53f 55f
Sa 08/29 11:50 7ft 6s 6s 22 27 mph 1017.3mb 52f 55f
10:50 7ft 10s 6s 22 29 mph 1018mb 52f 56f
9:50 6ft 5s 5s 20 25 mph 1018.6mb 53f 56f
8:50 6ft 9s 5s 22 27 mph 1019mb 54f 56f
7:50 6ft 5s 5s 22 25 mph 1019.6mb 54f 56f
6:50 6ft 9s 5s 20 25 mph 1020.1mb 54f 55f
5:50 6ft 9s 5s 20 25 mph 1020.5mb 54f 56f
4:50 7ft 9s 6s 18 22 mph 1021mb 54f 55f
3:50 7ft 10s 6s 18 22 mph 1021.6mb 54f 55f
2:50 7ft 10s 6s 20 22 mph 1022.4mb 55f 55f
1:50 7ft 10s 6s 18 25 mph 1023mb 55f 55f
12:50 7.5ft 11s 6s 18 22 mph 1023.8mb 55f 54f
11:50 7ft 11s 6s 22 25 mph 1024.7mb 55f 53f
10:50 7ft 11s 6s 22 27 mph 1025.3mb 55f 53f
9:50 7.5ft 11s 6s 20 25 mph 1026mb 55f 53f
8:50 6ft 12s 5s 20 25 mph 1026.2mb 55f 52f
7:50 6ft 12s 5s 20 22 mph 1026.6mb 55f 53f
6:50 6.5ft 10s 6s 18 22 mph 1026.9mb 55f 53f
5:50 6ft 12s 6s 18 22 mph 1027.3mb 55f 53f
4:50 6.5ft 11s 6s 18 20 mph 1027.8mb 55f 54f
3:50 6.5ft 11s 6s 18 22 mph 1028.2mb 56f 54f
2:50 6.5ft 10s 6s 18 22 mph 1028.8mb 56f 55f
1:50 6.5ft 11s 6s 16 18 mph 1029.7mb 55f 54f
12:50 7ft 11s 7s 18 22 mph 1030.5mb 55f 54f
Fr 08/28 11:50 6ft 10s 6s 16 20 mph 1031.1mb 55f 54f
10:50 7ft 11s 7s 16 18 mph 1031.6mb 55f 54f
9:50 6.5ft 13s 7s 16 18 mph 1032.3mb 55f 54f
8:50 6.5ft 14s 7s 16 18 mph 1032.5mb 55f 55f
7:50 7ft 11s 8s 16 18 mph 1032.7mb 55f 54f
6:50 7ft 13s 8s 16 20 mph 1032.9mb 55f 54f
5:50 7ft 12s 8s 13 16 mph 1033mb 55f 55f
4:50 7ft 12s 8s 11 13 mph 1033.2mb 55f 54f
3:50 7ft 12s 9s 11 13 mph 1033.4mb 55f 54f
2:50 7ft 12s 9s 9
mph
1033.7mb 55f 54f
1:50 7ft 13s 9s 7
mph
1034.2mb 53f 54f
12:50 6.5ft 13s 9s 9 11 mph 1034.7mb 55f 54f
11:50 8ft 13s 10s 7 9 mph 1035.1mb 55f 55f
10:50 8.5ft 14s 10s 7 9 mph 1035.5mb 56f 55f
9:50 8ft 15s 10s 9 11 mph 1035.6mb 56f 54f
8:50 7ft 15s 8s 9 11 mph 1035.7mb 55f 54f
7:50 7.5ft 15s 9s 9 11 mph 1035.6mb 55f 54f
6:50 8ft 15s 9s 11 16 mph 1035.3mb 55f 54f
5:50 7ft 16s 8s 11 13 mph 1035.2mb 55f 54f
4:50 6.5ft 15s 8s 11 13 mph 1035.2mb 56f 54f
3:50 8ft 15s 9s 9 11 mph 1035.2mb 56f 55f
2:50 8ft 15s 9s 11 13 mph 1035.3mb 56f 55f
1:50 9ft 16s 9s 11 13 mph 1035.3mb 55f 55f
12:50 7ft 15s 8s 11 13 mph 1035.2mb 55f 55f
Do 08/27 11:50 9ft 16s 9s 11 13 mph 1035.3mb 55f 55f
10:50 7ft 17s 8s 11 13 mph 1035.4mb 55f 55f
9:50 8ft 16s 8s 11 13 mph 1035.4mb 54f 55f
8:50 8.5ft 16s 9s 13 16 mph 1035mb 54f 55f
7:50 8.5ft 16s 8s 11 13 mph 1034.6mb 55f 55f
6:50 8.5ft 17s 9s 11 16 mph 1034.2mb 55f 55f
5:50 8ft 17s 8s 13
mph
1034mb 55f 55f
4:50 8ft 17s 8s 13 18 mph 1033.6mb 55f 55f
3:50 7ft 17s 7s 16 18 mph 1033.2mb 55f 54f
2:50 7ft 17s 7s 11 16 mph 1033.6mb 55f 54f
1:50 7.5ft 15s 7s 11 13 mph 1033.6mb 54f 55f
12:50 6.5ft 15s 7s 13 16 mph 1033.3mb 54f 54f
11:50 5ft 15s 6s 13 18 mph 1033.1mb 53f 54f
10:50 6ft 15s 6s 13 18 mph 1032.8mb 51f 54f
9:50 6ft 15s 7s 13 16 mph 1032.7mb 51f 54f
8:50 6.5ft 14s 6s 11 13 mph 1032.6mb 51f 54f
7:50 6.5ft 14s 6s 13 16 mph 1032.4mb 52f 54f